createdAt,value
2022-09-30T19:10:40.558Z,8.90
2022-09-30T19:13:08.330Z,8.30
2022-09-30T19:15:38.395Z,6.60
2022-09-30T19:18:06.679Z,5.37
2022-09-30T19:20:37.319Z,5.77
2022-09-30T19:23:06.432Z,6.00
2022-09-30T19:25:34.026Z,4.70
2022-09-30T19:28:03.362Z,5.00
2022-09-30T19:30:31.188Z,4.83
2022-09-30T19:32:59.863Z,4.60
2022-09-30T19:35:39.163Z,4.63
2022-09-30T19:38:08.416Z,7.23
2022-09-30T19:40:37.122Z,5.43
2022-09-30T19:43:06.871Z,4.70
2022-09-30T19:45:34.891Z,4.83
2022-09-30T19:48:03.083Z,4.97
2022-09-30T19:50:31.006Z,4.90
2022-09-30T19:52:59.722Z,4.37
2022-09-30T19:55:27.599Z,4.43
2022-09-30T19:57:55.341Z,5.10
2022-09-30T20:00:24.524Z,4.93
2022-09-30T20:02:52.594Z,5.00
2022-09-30T20:05:20.490Z,4.70
2022-09-30T20:07:50.852Z,4.67
2022-09-30T20:10:18.521Z,4.87
2022-09-30T20:12:46.326Z,3.77
2022-09-30T20:15:31.546Z,3.83
2022-09-30T20:18:00.673Z,4.17
2022-09-30T20:20:38.324Z,4.73
2022-09-30T20:23:06.042Z,3.40
2022-09-30T20:25:35.288Z,4.47
2022-09-30T20:28:03.997Z,3.43
2022-09-30T20:30:31.909Z,3.67
2022-09-30T20:33:01.899Z,3.30
2022-09-30T20:35:29.556Z,2.90
2022-09-30T20:37:57.366Z,3.70
2022-09-30T20:40:25.145Z,2.77
2022-09-30T20:42:52.762Z,2.70
2022-09-30T20:45:20.416Z,3.17
2022-09-30T20:47:48.076Z,2.97
2022-09-30T20:50:34.656Z,2.70
2022-09-30T20:53:06.861Z,2.67
2022-09-30T20:55:36.361Z,3.27
2022-09-30T20:58:04.779Z,3.07
2022-09-30T21:00:32.897Z,2.40
2022-09-30T21:03:00.552Z,2.80
2022-09-30T21:05:30.948Z,2.70
2022-09-30T21:07:59.229Z,2.77
2022-09-30T21:10:28.372Z,3.43
2022-09-30T21:12:57.149Z,3.03
2022-09-30T21:15:24.799Z,2.90
2022-09-30T21:17:54.787Z,2.70
2022-09-30T21:20:23.074Z,3.13
2022-09-30T21:22:53.752Z,3.20
2022-09-30T21:25:21.401Z,3.30
2022-09-30T21:27:49.687Z,2.83
2022-09-30T21:30:18.271Z,2.47
2022-09-30T21:32:46.457Z,2.60
2022-09-30T21:35:14.612Z,2.97
2022-09-30T21:37:42.845Z,3.20
2022-09-30T21:40:12.835Z,2.57
2022-09-30T21:42:40.477Z,3.67
2022-09-30T21:45:09.256Z,2.83
2022-09-30T21:47:36.885Z,2.97
2022-09-30T21:50:06.392Z,2.90
2022-09-30T21:52:34.565Z,2.53
2022-09-30T21:55:02.190Z,2.70
2022-09-30T21:57:31.249Z,2.80
2022-09-30T21:59:59.079Z,2.57
2022-09-30T22:02:26.772Z,2.87
2022-09-30T22:04:54.527Z,3.20
2022-09-30T22:07:24.975Z,2.60
2022-09-30T22:09:52.633Z,2.77
2022-09-30T22:12:20.251Z,2.80
2022-09-30T22:14:49.249Z,3.13
2022-09-30T22:17:16.899Z,3.30
2022-09-30T22:19:44.529Z,3.83
2022-09-30T22:22:12.225Z,3.17
2022-09-30T22:24:40.864Z,2.93
2022-09-30T22:27:09.012Z,2.83
2022-09-30T22:29:36.741Z,2.80
2022-09-30T22:32:05.847Z,2.97
2022-09-30T22:34:51.228Z,3.37
2022-09-30T22:37:36.237Z,3.00
2022-09-30T22:40:04.046Z,3.73
2022-09-30T22:42:31.654Z,4.00
2022-09-30T22:44:59.310Z,3.67
2022-09-30T22:47:28.264Z,3.97
2022-09-30T22:49:55.912Z,3.40
2022-09-30T22:52:23.552Z,3.93
2022-09-30T22:54:51.202Z,3.67
2022-09-30T22:57:18.867Z,4.30
2022-09-30T22:59:47.524Z,3.40
2022-09-30T23:02:15.766Z,3.80
2022-09-30T23:04:44.835Z,4.17
2022-09-30T23:07:12.465Z,3.43
2022-09-30T23:09:40.088Z,3.60
2022-09-30T23:12:07.758Z,3.40
2022-09-30T23:14:35.375Z,4.07
2022-09-30T23:17:03.004Z,3.80
2022-09-30T23:19:30.628Z,3.20
2022-09-30T23:21:59.617Z,3.97
2022-09-30T23:24:29.224Z,3.50
2022-09-30T23:26:56.870Z,3.50
2022-09-30T23:29:24.783Z,3.90
2022-09-30T23:32:23.975Z,3.60
2022-09-30T23:34:52.011Z,4.00
2022-09-30T23:37:21.076Z,4.00
2022-09-30T23:39:48.778Z,3.60
2022-09-30T23:42:16.470Z,3.90
2022-09-30T23:44:44.191Z,3.40
2022-09-30T23:47:21.353Z,4.00
2022-09-30T23:49:50.433Z,3.97
2022-09-30T23:52:18.408Z,3.87
2022-09-30T23:54:47.492Z,3.90
2022-09-30T23:57:15.205Z,3.70
2022-09-30T23:59:42.914Z,4.43
